sensor_id;sensor_type;location;lat;lon;timestamp;pressure;altitude;pressure_sealevel;temperature
70819;BMP280;58439;51.046;13.692;2023-04-15T00:01:28;98846.75;;;7.13
70819;BMP280;58439;51.046;13.692;2023-04-15T00:03:55;98851.13;;;7.06
70819;BMP280;58439;51.046;13.692;2023-04-15T00:06:23;98837.53;;;7.04
70819;BMP280;58439;51.046;13.692;2023-04-15T00:08:50;98844.94;;;7.07
70819;BMP280;58439;51.046;13.692;2023-04-15T00:11:18;98842.34;;;7.07
70819;BMP280;58439;51.046;13.692;2023-04-15T00:13:46;98846.16;;;7.11
70819;BMP280;58439;51.046;13.692;2023-04-15T00:16:13;98850.75;;;7.09
70819;BMP280;58439;51.046;13.692;2023-04-15T00:18:40;98842.97;;;7.09
70819;BMP280;58439;51.046;13.692;2023-04-15T00:21:08;98842.16;;;7.09
70819;BMP280;58439;51.046;13.692;2023-04-15T00:23:53;98838.34;;;7.05
70819;BMP280;58439;51.046;13.692;2023-04-15T00:30:05;98845.13;;;7.06
70819;BMP280;58439;51.046;13.692;2023-04-15T00:32:33;98840.94;;;7.05
70819;BMP280;58439;51.046;13.692;2023-04-15T00:35:00;98840.94;;;7.05
70819;BMP280;58439;51.046;13.692;2023-04-15T00:37:28;98829.75;;;7.04
70819;BMP280;58439;51.046;13.692;2023-04-15T00:39:55;98839.94;;;7.06
70819;BMP280;58439;51.046;13.692;2023-04-15T00:42:31;98829.13;;;7.02
70819;BMP280;58439;51.046;13.692;2023-04-15T00:44:59;98835.13;;;7.03
70819;BMP280;58439;51.046;13.692;2023-04-15T00:47:28;98826.94;;;6.99
70819;BMP280;58439;51.046;13.692;2023-04-15T00:49:56;98826.31;;;7.04
70819;BMP280;58439;51.046;13.692;2023-04-15T00:52:24;98822.31;;;7.01
70819;BMP280;58439;51.046;13.692;2023-04-15T00:54:52;98819.34;;;7.04
70819;BMP280;58439;51.046;13.692;2023-04-15T00:57:21;98829.53;;;6.99
70819;BMP280;58439;51.046;13.692;2023-04-15T00:59:51;98821.31;;;7.02
70819;BMP280;58439;51.046;13.692;2023-04-15T01:02:20;98820.94;;;7.05
70819;BMP280;58439;51.046;13.692;2023-04-15T01:08:57;98818.72;;;7.02
70819;BMP280;58439;51.046;13.692;2023-04-15T01:11:26;98807.31;;;7.03
70819;BMP280;58439;51.046;13.692;2023-04-15T01:13:55;98811.13;;;7.07
70819;BMP280;58439;51.046;13.692;2023-04-15T01:16:25;98810.53;;;7.05
70819;BMP280;58439;51.046;13.692;2023-04-15T01:18:54;98805.34;;;7.05
70819;BMP280;58439;51.046;13.692;2023-04-15T01:21:22;98808.97;;;7.04
70819;BMP280;58439;51.046;13.692;2023-04-15T01:23:51;98799.53;;;7.03
70819;BMP280;58439;51.046;13.692;2023-04-15T01:26:19;98807.94;;;7.05
70819;BMP280;58439;51.046;13.692;2023-04-15T01:28:48;98796.34;;;7.08
70819;BMP280;58439;51.046;13.692;2023-04-15T01:31:16;98803.75;;;7.04
70819;BMP280;58439;51.046;13.692;2023-04-15T01:33:45;98801.94;;;7.05
70819;BMP280;58439;51.046;13.692;2023-04-15T01:36:33;98797.56;;;7.05
70819;BMP280;58439;51.046;13.692;2023-04-15T01:39:00;98786.94;;;7.07
70819;BMP280;58439;51.046;13.692;2023-04-15T01:41:28;98794.16;;;7.05
70819;BMP280;58439;51.046;13.692;2023-04-15T01:43:56;98792.34;;;7.05
70819;BMP280;58439;51.046;13.692;2023-04-15T01:46:24;98789.53;;;7.07
70819;BMP280;58439;51.046;13.692;2023-04-15T01:48:54;98789.97;;;7.10
70819;BMP280;58439;51.046;13.692;2023-04-15T01:51:23;98792.16;;;7.07
70819;BMP280;58439;51.046;13.692;2023-04-15T01:53:52;98790.75;;;7.04
70819;BMP280;58439;51.046;13.692;2023-04-15T01:56:20;98788.75;;;7.06
70819;BMP280;58439;51.046;13.692;2023-04-15T01:58:49;98785.16;;;7.07
70819;BMP280;58439;51.046;13.692;2023-04-15T02:01:17;98781.75;;;7.07
70819;BMP280;58439;51.046;13.692;2023-04-15T02:03:49;98778.34;;;7.06
70819;BMP280;58439;51.046;13.692;2023-04-15T02:06:18;98777.94;;;7.03
70819;BMP280;58439;51.046;13.692;2023-04-15T02:08:46;98773.75;;;7.02
70819;BMP280;58439;51.046;13.692;2023-04-15T02:11:15;98772.56;;;7.04
70819;BMP280;58439;51.046;13.692;2023-04-15T02:13:43;98764.75;;;7.04
70819;BMP280;58439;51.046;13.692;2023-04-15T02:16:17;98766.94;;;7.07
70819;BMP280;58439;51.046;13.692;2023-04-15T02:18:46;98762.56;;;7.08
70819;BMP280;58439;51.046;13.692;2023-04-15T02:21:15;98770.94;;;7.03
70819;BMP280;58439;51.046;13.692;2023-04-15T02:23:43;98776.56;;;7.07
70819;BMP280;58439;51.046;13.692;2023-04-15T02:26:14;98778.16;;;7.08
70819;BMP280;58439;51.046;13.692;2023-04-15T02:28:42;98767.56;;;7.09
70819;BMP280;58439;51.046;13.692;2023-04-15T02:31:15;98763.16;;;7.10
70819;BMP280;58439;51.046;13.692;2023-04-15T02:33:44;98769.97;;;7.11
70819;BMP280;58439;51.046;13.692;2023-04-15T02:36:14;98766.78;;;7.09
70819;BMP280;58439;51.046;13.692;2023-04-15T02:38:42;98758.34;;;7.07
70819;BMP280;58439;51.046;13.692;2023-04-15T02:41:12;98751.19;;;7.09
70819;BMP280;58439;51.046;13.692;2023-04-15T02:43:41;98756.56;;;7.14
70819;BMP280;58439;51.046;13.692;2023-04-15T02:46:10;98756.56;;;7.14
70819;BMP280;58439;51.046;13.692;2023-04-15T02:48:42;98762.56;;;7.14
70819;BMP280;58439;51.046;13.692;2023-04-15T02:51:13;98762.97;;;7.11
70819;BMP280;58439;51.046;13.692;2023-04-15T02:53:42;98762.75;;;7.13
70819;BMP280;58439;51.046;13.692;2023-04-15T02:56:10;98773.38;;;7.11
70819;BMP280;58439;51.046;13.692;2023-04-15T02:58:40;98777.34;;;7.14
70819;BMP280;58439;51.046;13.692;2023-04-15T03:06:26;98770.56;;;7.13
70819;BMP280;58439;51.046;13.692;2023-04-15T03:08:55;98764.75;;;7.17
70819;BMP280;58439;51.046;13.692;2023-04-15T03:11:28;98751.16;;;7.15
70819;BMP280;58439;51.046;13.692;2023-04-15T03:13:57;98756.56;;;7.14
70819;BMP280;58439;51.046;13.692;2023-04-15T03:16:31;98755.53;;;7.15
70819;BMP280;58439;51.046;13.692;2023-04-15T03:19:00;98750.34;;;7.15
70819;BMP280;58439;51.046;13.692;2023-04-15T03:22:26;98751.34;;;7.14
70819;BMP280;58439;51.046;13.692;2023-04-15T03:30:12;98757.34;;;7.14
70819;BMP280;58439;51.046;13.692;2023-04-15T03:32:41;98755.53;;;7.15
70819;BMP280;58439;51.046;13.692;2023-04-15T03:35:10;98743.34;;;7.15
70819;BMP280;58439;51.046;13.692;2023-04-15T03:37:38;98742.38;;;7.16
70819;BMP280;58439;51.046;13.692;2023-04-15T03:40:08;98739.16;;;7.14
70819;BMP280;58439;51.046;13.692;2023-04-15T03:42:45;98736.97;;;7.18
70819;BMP280;58439;51.046;13.692;2023-04-15T03:45:49;98734.75;;;7.15
70819;BMP280;58439;51.046;13.692;2023-04-15T03:49:14;98729.97;;;7.18
70819;BMP280;58439;51.046;13.692;2023-04-15T03:51:44;98727.38;;;7.18
70819;BMP280;58439;51.046;13.692;2023-04-15T03:54:33;98733.97;;;7.14
70819;BMP280;58439;51.046;13.692;2023-04-15T03:57:02;98726.78;;;7.16
70819;BMP280;58439;51.046;13.692;2023-04-15T03:59:30;98724.59;;;7.20
70819;BMP280;58439;51.046;13.692;2023-04-15T04:01:59;98717.59;;;7.21
70819;BMP280;58439;51.046;13.692;2023-04-15T04:04:30;98724.38;;;7.22
70819;BMP280;58439;51.046;13.692;2023-04-15T04:06:59;98724.16;;;7.23
70819;BMP280;58439;51.046;13.692;2023-04-15T04:09:27;98720.78;;;7.23
70819;BMP280;58439;51.046;13.692;2023-04-15T04:11:56;98730.59;;;7.21
70819;BMP280;58439;51.046;13.692;2023-04-15T04:14:25;98723.59;;;7.21
70819;BMP280;58439;51.046;13.692;2023-04-15T04:16:56;98736.38;;;7.23
70819;BMP280;58439;51.046;13.692;2023-04-15T04:19:25;98736.38;;;7.23
70819;BMP280;58439;51.046;13.692;2023-04-15T04:21:53;98735.38;;;7.24
70819;BMP280;58439;51.046;13.692;2023-04-15T04:24:22;98732.75;;;7.24
70819;BMP280;58439;51.046;13.692;2023-04-15T04:26:54;98728.38;;;7.24
70819;BMP280;58439;51.046;13.692;2023-04-15T04:29:24;98725.75;;;7.24
70819;BMP280;58439;51.046;13.692;2023-04-15T04:31:52;98727.16;;;7.27
70819;BMP280;58439;51.046;13.692;2023-04-15T04:34:21;98727.16;;;7.27
70819;BMP280;58439;51.046;13.692;2023-04-15T04:36:50;98731.56;;;7.26
70819;BMP280;58439;51.046;13.692;2023-04-15T04:39:18;98726.75;;;7.23
70819;BMP280;58439;51.046;13.692;2023-04-15T04:41:47;98735.75;;;7.27
70819;BMP280;58439;51.046;13.692;2023-04-15T04:44:15;98734.56;;;7.30
70819;BMP280;58439;51.046;13.692;2023-04-15T04:46:44;98733.16;;;7.27
70819;BMP280;58439;51.046;13.692;2023-04-15T04:49:12;98739.34;;;7.26
70819;BMP280;58439;51.046;13.692;2023-04-15T04:51:43;98735.56;;;7.29
70819;BMP280;58439;51.046;13.692;2023-04-15T04:54:12;98744.75;;;7.31
70819;BMP280;58439;51.046;13.692;2023-04-15T04:56:40;98745.16;;;7.35
70819;BMP280;58439;51.046;13.692;2023-04-15T04:59:09;98744.38;;;7.34
70819;BMP280;58439;51.046;13.692;2023-04-15T05:01:37;98754.78;;;7.34
70819;BMP280;58439;51.046;13.692;2023-04-15T05:04:06;98756.38;;;7.35
70819;BMP280;58439;51.046;13.692;2023-04-15T05:06:35;98757.16;;;7.36
70819;BMP280;58439;51.046;13.692;2023-04-15T05:09:04;98753.75;;;7.35
70819;BMP280;58439;51.046;13.692;2023-04-15T05:11:32;98751.97;;;7.36
70819;BMP280;58439;51.046;13.692;2023-04-15T05:14:01;98757.53;;;7.39
70819;BMP280;58439;51.046;13.692;2023-04-15T05:16:29;98753.97;;;7.40
70819;BMP280;58439;51.046;13.692;2023-04-15T05:18:58;98757.56;;;7.46
70819;BMP280;58439;51.046;13.692;2023-04-15T05:21:27;98758.16;;;7.48
70819;BMP280;58439;51.046;13.692;2023-04-15T05:23:56;98756.56;;;7.47
70819;BMP280;58439;51.046;13.692;2023-04-15T05:26:50;98758.38;;;7.46
70819;BMP280;58439;51.046;13.692;2023-04-15T05:29:21;98760.16;;;7.46
70819;BMP280;58439;51.046;13.692;2023-04-15T05:31:49;98757.56;;;7.46
70819;BMP280;58439;51.046;13.692;2023-04-15T05:34:17;98762.97;;;7.44
70819;BMP280;58439;51.046;13.692;2023-04-15T05:36:46;98764.34;;;7.47
70819;BMP280;58439;51.046;13.692;2023-04-15T05:39:15;98765.16;;;7.47
70819;BMP280;58439;51.046;13.692;2023-04-15T05:41:43;98760.97;;;7.46
70819;BMP280;58439;51.046;13.692;2023-04-15T05:44:12;98765.56;;;7.44
70819;BMP280;58439;51.046;13.692;2023-04-15T05:46:43;98768.34;;;7.43
70819;BMP280;58439;51.046;13.692;2023-04-15T05:49:12;98762.34;;;7.42
70819;BMP280;58439;51.046;13.692;2023-04-15T05:51:40;98773.56;;;7.43
70819;BMP280;58439;51.046;13.692;2023-04-15T05:54:17;98773.56;;;7.43
70819;BMP280;58439;51.046;13.692;2023-04-15T05:56:48;98783.97;;;7.43
70819;BMP280;58439;51.046;13.692;2023-04-15T05:59:17;98788.19;;;7.44
70819;BMP280;58439;51.046;13.692;2023-04-15T06:01:45;98788.19;;;7.44
70819;BMP280;58439;51.046;13.692;2023-04-15T06:04:14;98786.38;;;7.44
70819;BMP280;58439;51.046;13.692;2023-04-15T06:06:42;98788.78;;;7.46
70819;BMP280;58439;51.046;13.692;2023-04-15T06:09:12;98787.97;;;7.45
70819;BMP280;58439;51.046;13.692;2023-04-15T06:11:41;98793.38;;;7.44
70819;BMP280;58439;51.046;13.692;2023-04-15T06:14:09;98790.78;;;7.44
70819;BMP280;58439;51.046;13.692;2023-04-15T06:16:38;98790.78;;;7.44
70819;BMP280;58439;51.046;13.692;2023-04-15T06:19:06;98785.59;;;7.44
70819;BMP280;58439;51.046;13.692;2023-04-15T06:21:35;98793.97;;;7.46
70819;BMP280;58439;51.046;13.692;2023-04-15T06:24:04;98799.78;;;7.48
70819;BMP280;58439;51.046;13.692;2023-04-15T06:26:32;98799.78;;;7.48
70819;BMP280;58439;51.046;13.692;2023-04-15T06:29:01;98804.19;;;7.47
70819;BMP280;58439;51.046;13.692;2023-04-15T06:31:30;98800.78;;;7.47
70819;BMP280;58439;51.046;13.692;2023-04-15T06:33:58;98801.16;;;7.51
70819;BMP280;58439;51.046;13.692;2023-04-15T06:36:28;98810.38;;;7.53
70819;BMP280;58439;51.046;13.692;2023-04-15T06:38:57;98807.38;;;7.56
70819;BMP280;58439;51.046;13.692;2023-04-15T06:41:27;98810.97;;;7.55
70819;BMP280;58439;51.046;13.692;2023-04-15T06:43:55;98815.94;;;7.63
70819;BMP280;58439;51.046;13.692;2023-04-15T06:46:24;98820.97;;;7.65
70819;BMP280;58439;51.046;13.692;2023-04-15T06:48:52;98813.97;;;7.65
70819;BMP280;58439;51.046;13.692;2023-04-15T06:51:21;98812.38;;;7.64
70819;BMP280;58439;51.046;13.692;2023-04-15T06:54:04;98818.00;;;7.68
70819;BMP280;58439;51.046;13.692;2023-04-15T06:56:34;98828.19;;;7.69
70819;BMP280;58439;51.046;13.692;2023-04-15T06:59:02;98820.38;;;7.69
70819;BMP280;58439;51.046;13.692;2023-04-15T07:01:31;98827.19;;;7.70
70819;BMP280;58439;51.046;13.692;2023-04-15T07:04:04;98827.56;;;7.74
70819;BMP280;58439;51.046;13.692;2023-04-15T07:06:36;98836.97;;;7.75
70819;BMP280;58439;51.046;13.692;2023-04-15T07:10:37;98836.34;;;7.86
70819;BMP280;58439;51.046;13.692;2023-04-15T07:13:13;98826.72;;;7.93
70819;BMP280;58439;51.046;13.692;2023-04-15T07:15:42;98841.72;;;8.05
70819;BMP280;58439;51.046;13.692;2023-04-15T07:22:32;98851.94;;;8.06
70819;BMP280;58439;51.046;13.692;2023-04-15T07:25:01;98852.94;;;8.05
70819;BMP280;58439;51.046;13.692;2023-04-15T07:27:29;98855.00;;;8.03
70819;BMP280;58439;51.046;13.692;2023-04-15T07:30:01;98855.56;;;7.98
70819;BMP280;58439;51.046;13.692;2023-04-15T07:32:29;98851.75;;;7.94
70819;BMP280;58439;51.046;13.692;2023-04-15T07:34:58;98850.34;;;8.05
70819;BMP280;58439;51.046;13.692;2023-04-15T07:37:26;98847.53;;;8.20
70819;BMP280;58439;51.046;13.692;2023-04-15T07:39:55;98853.84;;;8.37
70819;BMP280;58439;51.046;13.692;2023-04-15T07:42:25;98852.81;;;8.51
70819;BMP280;58439;51.046;13.692;2023-04-15T07:44:55;98856.63;;;8.56
70819;BMP280;58439;51.046;13.692;2023-04-15T07:47:24;98862.19;;;8.66
70819;BMP280;58439;51.046;13.692;2023-04-15T07:49:53;98865.38;;;8.68
70819;BMP280;58439;51.046;13.692;2023-04-15T07:52:21;98863.16;;;8.71
70819;BMP280;58439;51.046;13.692;2023-04-15T07:54:49;98874.53;;;8.77
70819;BMP280;58439;51.046;13.692;2023-04-15T07:57:18;98868.66;;;8.88
70819;BMP280;58439;51.046;13.692;2023-04-15T07:59:47;98872.75;;;9.09
70819;BMP280;58439;51.046;13.692;2023-04-15T08:02:15;98875.31;;;9.22
70819;BMP280;58439;51.046;13.692;2023-04-15T08:04:44;98884.97;;;9.47
70819;BMP280;58439;51.046;13.692;2023-04-15T08:07:13;98881.00;;;9.69
70819;BMP280;58439;51.046;13.692;2023-04-15T08:09:42;98884.34;;;9.95
70819;BMP280;58439;51.046;13.692;2023-04-15T08:12:13;98888.34;;;10.34
70819;BMP280;58439;51.046;13.692;2023-04-15T08:14:42;98887.13;;;10.85
70819;BMP280;58439;51.046;13.692;2023-04-15T08:17:10;98896.13;;;10.89
70819;BMP280;58439;51.046;13.692;2023-04-15T08:19:39;98898.69;;;10.77
70819;BMP280;58439;51.046;13.692;2023-04-15T08:22:08;98897.81;;;10.65
70819;BMP280;58439;51.046;13.692;2023-04-15T08:24:45;98898.09;;;10.75
70819;BMP280;58439;51.046;13.692;2023-04-15T08:27:13;98902.06;;;10.96
70819;BMP280;58439;51.046;13.692;2023-04-15T08:29:42;98902.97;;;11.01
70819;BMP280;58439;51.046;13.692;2023-04-15T08:32:10;98897.22;;;11.11
70819;BMP280;58439;51.046;13.692;2023-04-15T08:34:42;98897.91;;;11.18
70819;BMP280;58439;51.046;13.692;2023-04-15T08:37:10;98899.03;;;11.22
70819;BMP280;58439;51.046;13.692;2023-04-15T08:39:40;98906.25;;;11.27
70819;BMP280;58439;51.046;13.692;2023-04-15T08:42:27;98910.81;;;11.31
70819;BMP280;58439;51.046;13.692;2023-04-15T08:44:59;98906.25;;;11.50
70819;BMP280;58439;51.046;13.692;2023-04-15T08:47:30;98912.75;;;11.48
70819;BMP280;58439;51.046;13.692;2023-04-15T08:50:03;98913.66;;;11.42
70819;BMP280;58439;51.046;13.692;2023-04-15T08:52:32;98915.81;;;11.33
70819;BMP280;58439;51.046;13.692;2023-04-15T08:55:02;98914.44;;;11.42
70819;BMP280;58439;51.046;13.692;2023-04-15T08:57:32;98911.59;;;11.44
70819;BMP280;58439;51.046;13.692;2023-04-15T09:00:02;98917.75;;;11.49
70819;BMP280;58439;51.046;13.692;2023-04-15T09:02:33;98928.56;;;11.41
70819;BMP280;58439;51.046;13.692;2023-04-15T09:05:02;98926.88;;;11.47
70819;BMP280;58439;51.046;13.692;2023-04-15T09:07:33;98920.63;;;11.48
70819;BMP280;58439;51.046;13.692;2023-04-15T09:10:04;98927.06;;;11.45
70819;BMP280;58439;51.046;13.692;2023-04-15T09:12:36;98928.25;;;11.61
70819;BMP280;58439;51.046;13.692;2023-04-15T09:15:05;98928.84;;;11.63
70819;BMP280;58439;51.046;13.692;2023-04-15T09:17:42;98936.78;;;11.68
70819;BMP280;58439;51.046;13.692;2023-04-15T09:20:15;98935.56;;;11.82
70819;BMP280;58439;51.046;13.692;2023-04-15T09:22:47;98939.06;;;11.76
70819;BMP280;58439;51.046;13.692;2023-04-15T09:27:58;98935.56;;;11.94
70819;BMP280;58439;51.046;13.692;2023-04-15T09:30:28;98945.69;;;11.79
70819;BMP280;58439;51.046;13.692;2023-04-15T09:32:59;98943.94;;;11.61
70819;BMP280;58439;51.046;13.692;2023-04-15T09:35:38;98950.22;;;11.48
70819;BMP280;58439;51.046;13.692;2023-04-15T09:38:08;98946.00;;;11.36
70819;BMP280;58439;51.046;13.692;2023-04-15T09:40:39;98953.66;;;11.19
70819;BMP280;58439;51.046;13.692;2023-04-15T09:43:09;98961.25;;;11.09
70819;BMP280;58439;51.046;13.692;2023-04-15T09:45:51;98962.75;;;10.86
70819;BMP280;58439;51.046;13.692;2023-04-15T09:48:24;98969.91;;;10.61
70819;BMP280;58439;51.046;13.692;2023-04-15T09:51:00;98973.69;;;10.40
70819;BMP280;58439;51.046;13.692;2023-04-15T09:53:32;98974.81;;;10.32
70819;BMP280;58439;51.046;13.692;2023-04-15T09:56:05;98979.78;;;10.15
70819;BMP280;58439;51.046;13.692;2023-04-15T09:58:36;98983.56;;;10.19
70819;BMP280;58439;51.046;13.692;2023-04-15T10:01:06;98983.16;;;10.23
70819;BMP280;58439;51.046;13.692;2023-04-15T10:03:39;98980.16;;;10.19
70819;BMP280;58439;51.046;13.692;2023-04-15T10:06:10;98991.72;;;10.30
70819;BMP280;58439;51.046;13.692;2023-04-15T10:08:40;98983.09;;;10.29
70819;BMP280;58439;51.046;13.692;2023-04-15T10:11:09;98989.19;;;10.41
70819;BMP280;58439;51.046;13.692;2023-04-15T10:13:39;98986.88;;;10.52
70819;BMP280;58439;51.046;13.692;2023-04-15T10:16:18;98985.66;;;10.54
70819;BMP280;58439;51.046;13.692;2023-04-15T10:18:53;98993.19;;;10.62
70819;BMP280;58439;51.046;13.692;2023-04-15T10:21:23;99001.13;;;10.56
70819;BMP280;58439;51.046;13.692;2023-04-15T10:23:52;98994.88;;;10.57
70819;BMP280;58439;51.046;13.692;2023-04-15T10:26:21;99003.28;;;10.59
70819;BMP280;58439;51.046;13.692;2023-04-15T10:28:53;99004.88;;;10.60
70819;BMP280;58439;51.046;13.692;2023-04-15T10:31:22;99011.41;;;10.51
70819;BMP280;58439;51.046;13.692;2023-04-15T10:33:52;99012.09;;;10.46
70819;BMP280;58439;51.046;13.692;2023-04-15T10:36:21;99008.22;;;10.48
70819;BMP280;58439;51.046;13.692;2023-04-15T10:38:49;99008.63;;;10.27
70819;BMP280;58439;51.046;13.692;2023-04-15T10:41:26;99012.75;;;10.16
70819;BMP280;58439;51.046;13.692;2023-04-15T10:44:03;99003.28;;;10.15
70819;BMP280;58439;51.046;13.692;2023-04-15T10:46:44;99001.66;;;10.21
70819;BMP280;58439;51.046;13.692;2023-04-15T10:49:24;99004.34;;;10.33
70819;BMP280;58439;51.046;13.692;2023-04-15T10:51:58;99011.91;;;10.59
70819;BMP280;58439;51.046;13.692;2023-04-15T11:02:47;99014.38;;;10.91
70819;BMP280;58439;51.046;13.692;2023-04-15T11:05:17;99015.53;;;11.13
70819;BMP280;58439;51.046;13.692;2023-04-15T11:07:52;99023.81;;;11.28
70819;BMP280;58439;51.046;13.692;2023-04-15T11:13:12;99021.66;;;11.37
70819;BMP280;58439;51.046;13.692;2023-04-15T11:15:47;99030.25;;;11.26
70819;BMP280;58439;51.046;13.692;2023-04-15T11:18:33;99038.94;;;11.08
70819;BMP280;58439;51.046;13.692;2023-04-15T11:21:07;99034.31;;;10.92
70819;BMP280;58439;51.046;13.692;2023-04-15T11:23:41;99037.38;;;10.89
70819;BMP280;58439;51.046;13.692;2023-04-15T11:26:14;99036.09;;;10.91
70819;BMP280;58439;51.046;13.692;2023-04-15T11:28:44;99038.19;;;10.89
70819;BMP280;58439;51.046;13.692;2023-04-15T11:31:16;99045.47;;;10.99
70819;BMP280;58439;51.046;13.692;2023-04-15T11:33:57;99042.66;;;11.00
70819;BMP280;58439;51.046;13.692;2023-04-15T11:36:28;99051.00;;;11.09
70819;BMP280;58439;51.046;13.692;2023-04-15T11:39:01;99056.38;;;11.14
70819;BMP280;58439;51.046;13.692;2023-04-15T11:41:30;99055.56;;;11.14
70819;BMP280;58439;51.046;13.692;2023-04-15T11:43:58;99061.84;;;11.13
70819;BMP280;58439;51.046;13.692;2023-04-15T11:46:30;99052.84;;;11.27
70819;BMP280;58439;51.046;13.692;2023-04-15T11:49:00;99056.94;;;11.35
70819;BMP280;58439;51.046;13.692;2023-04-15T11:51:33;99066.94;;;11.38
70819;BMP280;58439;51.046;13.692;2023-04-15T11:54:01;99060.53;;;11.52
70819;BMP280;58439;51.046;13.692;2023-04-15T11:56:30;99064.78;;;11.65
70819;BMP280;58439;51.046;13.692;2023-04-15T11:58:58;99070.50;;;11.73
70819;BMP280;58439;51.046;13.692;2023-04-15T12:01:37;99066.97;;;11.68
70819;BMP280;58439;51.046;13.692;2023-04-15T12:04:17;99069.31;;;11.57
70819;BMP280;58439;51.046;13.692;2023-04-15T12:06:52;99080.72;;;11.51
70819;BMP280;58439;51.046;13.692;2023-04-15T12:20:02;99096.41;;;11.15
70819;BMP280;58439;51.046;13.692;2023-04-15T12:22:29;99099.41;;;11.18
70819;BMP280;58439;51.046;13.692;2023-04-15T12:24:57;99101.09;;;11.31
70819;BMP280;58439;51.046;13.692;2023-04-15T12:27:25;99096.66;;;11.31
70819;BMP280;58439;51.046;13.692;2023-04-15T12:30:06;99102.31;;;11.47
70819;BMP280;58439;51.046;13.692;2023-04-15T12:32:34;99108.16;;;11.60
70819;BMP280;58439;51.046;13.692;2023-04-15T12:35:02;99113.06;;;11.69
70819;BMP280;58439;51.046;13.692;2023-04-15T12:37:29;99114.69;;;11.81
70819;BMP280;58439;51.046;13.692;2023-04-15T12:39:57;99123.84;;;11.79
70819;BMP280;58439;51.046;13.692;2023-04-15T12:42:24;99124.41;;;11.81
70819;BMP280;58439;51.046;13.692;2023-04-15T12:44:52;99123.84;;;11.79
70819;BMP280;58439;51.046;13.692;2023-04-15T12:47:22;99128.56;;;11.70
70819;BMP280;58439;51.046;13.692;2023-04-15T12:49:49;99132.47;;;11.49
70819;BMP280;58439;51.046;13.692;2023-04-15T12:52:16;99131.19;;;11.40
70819;BMP280;58439;51.046;13.692;2023-04-15T12:54:44;99131.59;;;11.37
70819;BMP280;58439;51.046;13.692;2023-04-15T12:57:12;99132.94;;;11.28
70819;BMP280;58439;51.046;13.692;2023-04-15T12:59:40;99148.00;;;11.32
70819;BMP280;58439;51.046;13.692;2023-04-15T13:02:07;99141.16;;;11.31
70819;BMP280;58439;51.046;13.692;2023-04-15T13:04:35;99145.84;;;11.23
70819;BMP280;58439;51.046;13.692;2023-04-15T13:07:28;99143.84;;;11.25
70819;BMP280;58439;51.046;13.692;2023-04-15T13:10:32;99147.88;;;11.27
70819;BMP280;58439;51.046;13.692;2023-04-15T13:13:07;99156.06;;;11.31
70819;BMP280;58439;51.046;13.692;2023-04-15T13:15:34;99159.25;;;11.33
70819;BMP280;58439;51.046;13.692;2023-04-15T13:18:05;99157.44;;;11.34
70819;BMP280;58439;51.046;13.692;2023-04-15T13:20:34;99158.03;;;11.36
70819;BMP280;58439;51.046;13.692;2023-04-15T13:23:02;99156.97;;;11.37
70819;BMP280;58439;51.046;13.692;2023-04-15T13:25:29;99160.19;;;11.39
70819;BMP280;58439;51.046;13.692;2023-04-15T13:27:58;99167.75;;;11.47
70819;BMP280;58439;51.046;13.692;2023-04-15T13:30:27;99161.81;;;11.40
70819;BMP280;58439;51.046;13.692;2023-04-15T13:33:26;99165.56;;;11.44
70819;BMP280;58439;51.046;13.692;2023-04-15T13:35:55;99163.16;;;11.60
70819;BMP280;58439;51.046;13.692;2023-04-15T13:38:24;99170.69;;;11.69
70819;BMP280;58439;51.046;13.692;2023-04-15T13:40:51;99171.50;;;11.69
70819;BMP280;58439;51.046;13.692;2023-04-15T13:43:19;99171.50;;;11.69
70819;BMP280;58439;51.046;13.692;2023-04-15T13:45:47;99178.84;;;11.79
70819;BMP280;58439;51.046;13.692;2023-04-15T13:48:15;99182.28;;;11.79
70819;BMP280;58439;51.046;13.692;2023-04-15T13:50:43;99186.22;;;11.82
70819;BMP280;58439;51.046;13.692;2023-04-15T13:53:12;99186.09;;;11.95
70819;BMP280;58439;51.046;13.692;2023-04-15T13:55:39;99181.78;;;12.12
70819;BMP280;58439;51.046;13.692;2023-04-15T13:58:09;99192.66;;;12.28
70819;BMP280;58439;51.046;13.692;2023-04-15T14:00:36;99196.41;;;12.20
70819;BMP280;58439;51.046;13.692;2023-04-15T14:03:04;99186.56;;;12.04
70819;BMP280;58439;51.046;13.692;2023-04-15T14:05:34;99197.75;;;11.81
70819;BMP280;58439;51.046;13.692;2023-04-15T14:08:01;99197.91;;;11.68
70819;BMP280;58439;51.046;13.692;2023-04-15T14:10:28;99196.31;;;11.67
70819;BMP280;58439;51.046;13.692;2023-04-15T14:12:56;99202.59;;;11.66
70819;BMP280;58439;51.046;13.692;2023-04-15T14:15:23;99204.75;;;11.69
70819;BMP280;58439;51.046;13.692;2023-04-15T14:17:52;99205.13;;;11.72
70819;BMP280;58439;51.046;13.692;2023-04-15T14:20:23;99217.66;;;11.82
70819;BMP280;58439;51.046;13.692;2023-04-15T14:22:51;99211.84;;;11.98
70819;BMP280;58439;51.046;13.692;2023-04-15T14:25:18;99217.91;;;12.10
70819;BMP280;58439;51.046;13.692;2023-04-15T14:27:59;99217.28;;;12.27
70819;BMP280;58439;51.046;13.692;2023-04-15T14:30:29;99224.41;;;12.38
70819;BMP280;58439;51.046;13.692;2023-04-15T14:32:57;99222.13;;;12.41
70819;BMP280;58439;51.046;13.692;2023-04-15T14:35:24;99228.19;;;12.42
70819;BMP280;58439;51.046;13.692;2023-04-15T14:37:53;99231.97;;;12.58
70819;BMP280;58439;51.046;13.692;2023-04-15T14:40:22;99239.25;;;12.67
70819;BMP280;58439;51.046;13.692;2023-04-15T14:42:55;99237.22;;;12.69
70819;BMP280;58439;51.046;13.692;2023-04-15T14:45:23;99236.91;;;12.78
70819;BMP280;58439;51.046;13.692;2023-04-15T14:47:50;99229.50;;;12.86
70819;BMP280;58439;51.046;13.692;2023-04-15T14:50:19;99237.25;;;12.93
70819;BMP280;58439;51.046;13.692;2023-04-15T14:52:46;99243.94;;;13.00
70819;BMP280;58439;51.046;13.692;2023-04-15T14:55:14;99245.44;;;13.08
70819;BMP280;58439;51.046;13.692;2023-04-15T14:57:41;99242.47;;;13.16
70819;BMP280;58439;51.046;13.692;2023-04-15T15:00:10;99246.91;;;13.16
70819;BMP280;58439;51.046;13.692;2023-04-15T15:02:42;99255.84;;;13.26
70819;BMP280;58439;51.046;13.692;2023-04-15T15:05:10;99256.84;;;13.49
70819;BMP280;58439;51.046;13.692;2023-04-15T15:07:39;99260.44;;;13.59
70819;BMP280;58439;51.046;13.692;2023-04-15T15:10:21;99257.03;;;13.59
70819;BMP280;58439;51.046;13.692;2023-04-15T15:13:09;99259.81;;;13.41